Time;durP1;ratioP1;P1;durP2;ratioP2;P2;SDS_P1;SDS_P2;PMS_P1;PMS_P2;Temp;Humidity;BMP_temperature;BMP_pressure;BME280_temperature;BME280_humidity;BME280_pressure;Samples;Min_cycle;Max_cycle;Signal;HPM_P1;HPM_P2
2021/07/17 00:00:12;;;;;;;11.88;9.20;;;;;;;;;;5076954;28;20127;-68
2021/07/17 00:02:41;;;;;;;11.93;10.15;;;;;;;;;;5077193;28;20037;-68
2021/07/17 00:05:07;;;;;;;11.73;9.43;;;;;;;;;;5075694;28;20081;-62
2021/07/17 00:07:33;;;;;;;10.68;9.38;;;;;;;;;;5059266;28;20024;-67
2021/07/17 00:10:04;;;;;;;10.77;9.20;;;;;;;;;;5076977;28;20417;-68
2021/07/17 00:12:29;;;;;;;11.18;8.93;;;;;;;;;;5076888;28;20428;-68
2021/07/17 00:14:55;;;;;;;11.48;8.25;;;;;;;;;;5076783;28;20082;-68
2021/07/17 00:17:22;;;;;;;12.95;9.43;;;;;;;;;;5076980;28;20051;-67
2021/07/17 00:19:47;;;;;;;10.52;8.93;;;;;;;;;;5076493;28;20025;-67
2021/07/17 00:22:13;;;;;;;15.05;8.55;;;;;;;;;;5076630;28;20035;-66
2021/07/17 00:24:38;;;;;;;10.90;8.55;;;;;;;;;;5076761;28;20024;-66
2021/07/17 00:27:04;;;;;;;13.30;8.77;;;;;;;;;;5076458;28;20024;-66
2021/07/17 00:29:29;;;;;;;11.57;9.32;;;;;;;;;;5075203;28;20013;-66
2021/07/17 00:31:55;;;;;;;14.80;10.27;;;;;;;;;;5076324;28;20070;-66
2021/07/17 00:34:20;;;;;;;12.88;9.65;;;;;;;;;;5076622;28;20024;-63
2021/07/17 00:36:46;;;;;;;11.30;9.18;;;;;;;;;;5075319;28;20051;-62
2021/07/17 00:39:11;;;;;;;12.63;8.98;;;;;;;;;;5074912;28;20024;-66
2021/07/17 00:41:37;;;;;;;13.35;9.45;;;;;;;;;;5074768;28;20068;-66
2021/07/17 00:44:02;;;;;;;11.25;9.70;;;;;;;;;;5076278;28;20040;-66
2021/07/17 00:46:28;;;;;;;12.27;10.77;;;;;;;;;;5076119;28;20107;-66
2021/07/17 00:48:54;;;;;;;14.32;10.15;;;;;;;;;;5076380;28;20018;-66
2021/07/17 00:51:22;;;;;;;11.20;9.32;;;;;;;;;;5076418;28;20024;-66
2021/07/17 00:53:50;;;;;;;12.07;9.15;;;;;;;;;;5076068;28;20016;-65
2021/07/17 00:56:16;;;;;;;10.55;9.13;;;;;;;;;;5076121;28;20028;-65
2021/07/17 00:58:46;;;;;;;11.63;9.02;;;;;;;;;;5074923;28;20027;-65
2021/07/17 01:01:19;;;;;;;11.63;8.55;;;;;;;;;;5076141;28;20028;-68
2021/07/17 01:03:48;;;;;;;12.60;8.82;;;;;;;;;;5074697;28;20055;-68
2021/07/17 01:06:13;;;;;;;14.57;8.80;;;;;;;;;;5074593;28;20017;-63
2021/07/17 01:08:39;;;;;;;12.68;9.55;;;;;;;;;;5074834;28;20056;-62
2021/07/17 01:11:04;;;;;;;8.98;8.07;;;;;;;;;;5075908;28;20017;-62
2021/07/17 01:13:30;;;;;;;14.32;9.32;;;;;;;;;;5075722;28;20111;-62
2021/07/17 01:15:56;;;;;;;12.30;9.70;;;;;;;;;;5075675;28;20017;-62
2021/07/17 01:18:22;;;;;;;11.05;8.77;;;;;;;;;;5075823;28;20029;-68
2021/07/17 01:20:48;;;;;;;11.23;9.15;;;;;;;;;;5075762;28;20026;-68
2021/07/17 01:23:14;;;;;;;10.75;8.80;;;;;;;;;;5074411;28;20476;-66
2021/07/17 01:25:39;;;;;;;10.55;9.43;;;;;;;;;;5075456;28;20023;-66
2021/07/17 01:28:05;;;;;;;14.88;9.43;;;;;;;;;;5075374;28;20036;-66
2021/07/17 01:30:32;;;;;;;13.20;9.70;;;;;;;;;;5075284;28;20071;-66
2021/07/17 01:32:58;;;;;;;13.50;9.43;;;;;;;;;;5075477;28;20413;-62
2021/07/17 01:35:23;;;;;;;12.57;9.02;;;;;;;;;;5075323;28;20103;-62
2021/07/17 01:37:49;;;;;;;10.63;8.85;;;;;;;;;;5074064;28;20502;-62
2021/07/17 01:40:21;;;;;;;11.82;8.60;;;;;;;;;;5078899;28;20036;-62
2021/07/17 01:42:48;;;;;;;10.32;8.90;;;;;;;;;;5095452;28;20042;-66
2021/07/17 01:45:26;;;;;;;10.90;8.43;;;;;;;;;;5077451;28;20023;-66
2021/07/17 01:47:52;;;;;;;10.32;8.25;;;;;;;;;;5077262;28;20097;-66
2021/07/17 01:50:17;;;;;;;10.18;8.65;;;;;;;;;;5095568;28;20062;-66
2021/07/17 01:52:47;;;;;;;13.23;10.40;;;;;;;;;;5095265;28;20024;-66
2021/07/17 01:55:12;;;;;;;13.57;10.63;;;;;;;;;;5095111;28;20503;-67
2021/07/17 01:57:38;;;;;;;14.88;9.00;;;;;;;;;;5076948;28;20083;-67
2021/07/17 02:00:04;;;;;;;13.60;10.00;;;;;;;;;;5095143;28;20016;-62
2021/07/17 02:02:33;;;;;;;11.73;8.70;;;;;;;;;;5095129;28;20127;-62
2021/07/17 02:05:07;;;;;;;15.05;9.90;;;;;;;;;;5094819;28;20077;-62
2021/07/17 02:07:33;;;;;;;12.88;9.52;;;;;;;;;;5094955;28;20060;-62
2021/07/17 02:09:58;;;;;;;11.50;9.50;;;;;;;;;;5095027;28;20506;-62
2021/07/17 02:12:24;;;;;;;12.88;10.40;;;;;;;;;;5094839;28;20495;-62
2021/07/17 02:14:51;;;;;;;13.45;10.93;;;;;;;;;;5094567;28;20026;-62
2021/07/17 02:17:16;;;;;;;11.10;10.00;;;;;;;;;;5076805;28;20036;-62
2021/07/17 02:19:42;;;;;;;13.00;10.35;;;;;;;;;;5076630;28;20089;-62
2021/07/17 02:22:07;;;;;;;15.15;9.93;;;;;;;;;;5094351;28;20028;-62
2021/07/17 02:24:33;;;;;;;13.57;9.60;;;;;;;;;;5094496;28;20028;-62
2021/07/17 02:27:00;;;;;;;14.23;10.23;;;;;;;;;;5094396;28;20035;-66
2021/07/17 02:29:25;;;;;;;10.90;9.23;;;;;;;;;;5094508;28;20490;-66
2021/07/17 02:31:53;;;;;;;12.15;10.00;;;;;;;;;;5094808;28;20058;-66
2021/07/17 02:34:20;;;;;;;12.57;10.25;;;;;;;;;;5094614;28;20020;-66
2021/07/17 02:36:46;;;;;;;15.77;10.75;;;;;;;;;;5094197;28;20020;-66
2021/07/17 02:39:12;;;;;;;15.93;11.18;;;;;;;;;;5094415;28;20429;-62
2021/07/17 02:41:38;;;;;;;11.73;10.48;;;;;;;;;;5094037;28;20079;-62
2021/07/17 02:44:04;;;;;;;11.68;10.25;;;;;;;;;;5075857;28;20032;-63
2021/07/17 02:46:29;;;;;;;11.90;9.50;;;;;;;;;;5093893;28;20020;-63
2021/07/17 02:48:54;;;;;;;11.55;9.50;;;;;;;;;;5094083;28;20123;-62
2021/07/17 02:51:20;;;;;;;11.98;10.25;;;;;;;;;;5094073;28;20016;-62
2021/07/17 02:53:45;;;;;;;12.77;10.05;;;;;;;;;;5076060;28;20487;-62
2021/07/17 02:56:11;;;;;;;12.30;10.75;;;;;;;;;;5093967;28;20063;-62
2021/07/17 02:58:37;;;;;;;13.23;11.18;;;;;;;;;;5075713;28;20028;-62
2021/07/17 03:01:02;;;;;;;13.30;9.98;;;;;;;;;;5076005;28;20032;-62
2021/07/17 03:03:28;;;;;;;12.07;10.68;;;;;;;;;;5094002;28;20111;-62
2021/07/17 03:05:54;;;;;;;14.75;11.25;;;;;;;;;;5093889;28;20035;-62
2021/07/17 03:08:22;;;;;;;13.93;10.95;;;;;;;;;;5093808;28;20472;-62
2021/07/17 03:10:49;;;;;;;20.13;11.25;;;;;;;;;;5059076;28;20024;-62
2021/07/17 03:13:15;;;;;;;13.05;10.38;;;;;;;;;;5093886;28;20341;-63
2021/07/17 03:15:41;;;;;;;12.85;9.85;;;;;;;;;;5093637;28;20055;-63
2021/07/17 03:18:07;;;;;;;12.20;10.63;;;;;;;;;;5093838;28;20647;-62
2021/07/17 03:20:32;;;;;;;15.25;10.52;;;;;;;;;;5093645;28;20053;-62
2021/07/17 03:22:57;;;;;;;13.68;9.90;;;;;;;;;;5093408;28;20032;-63
2021/07/17 03:25:23;;;;;;;14.27;10.45;;;;;;;;;;5093430;28;20028;-63
2021/07/17 03:27:48;;;;;;;11.70;10.02;;;;;;;;;;5093406;28;20020;-62
2021/07/17 03:30:14;;;;;;;16.55;10.65;;;;;;;;;;5075336;28;20038;-62
2021/07/17 03:32:40;;;;;;;13.85;11.10;;;;;;;;;;5093551;28;20364;-62
2021/07/17 03:35:06;;;;;;;11.63;10.27;;;;;;;;;;5075534;28;20035;-63
2021/07/17 03:37:32;;;;;;;14.38;10.13;;;;;;;;;;5093494;28;20016;-62
2021/07/17 03:39:57;;;;;;;14.25;10.00;;;;;;;;;;5075055;28;20032;-62
2021/07/17 03:42:27;;;;;;;14.63;11.77;;;;;;;;;;5075457;28;20126;-62
2021/07/17 03:44:53;;;;;;;13.13;11.02;;;;;;;;;;5093445;28;20085;-62
2021/07/17 03:47:19;;;;;;;10.93;9.50;;;;;;;;;;5075342;28;20016;-62
2021/07/17 03:49:44;;;;;;;11.73;10.30;;;;;;;;;;5093346;28;20032;-62
2021/07/17 03:52:10;;;;;;;12.85;9.10;;;;;;;;;;5093343;28;20012;-62
2021/07/17 03:54:36;;;;;;;10.10;8.93;;;;;;;;;;5093431;28;20020;-62
2021/07/17 03:57:01;;;;;;;11.52;9.40;;;;;;;;;;5093436;28;20020;-62
2021/07/17 03:59:27;;;;;;;10.95;8.95;;;;;;;;;;5093269;28;20043;-62
2021/07/17 04:01:52;;;;;;;10.18;8.60;;;;;;;;;;5093507;28;20024;-62
2021/07/17 04:04:18;;;;;;;10.45;8.57;;;;;;;;;;5093175;28;20028;-62
2021/07/17 04:06:44;;;;;;;10.48;8.05;;;;;;;;;;5093022;28;20051;-62
2021/07/17 04:09:09;;;;;;;9.10;8.02;;;;;;;;;;5092890;28;20028;-63
2021/07/17 04:11:35;;;;;;;10.18;7.72;;;;;;;;;;5093407;28;20052;-63
2021/07/17 04:14:00;;;;;;;8.32;7.25;;;;;;;;;;5092969;28;20025;-63
2021/07/17 04:16:26;;;;;;;8.15;7.35;;;;;;;;;;5093366;28;20024;-63
2021/07/17 04:18:51;;;;;;;10.73;7.45;;;;;;;;;;5092975;28;20055;-62
2021/07/17 04:21:17;;;;;;;8.48;7.57;;;;;;;;;;5092874;28;20055;-63
2021/07/17 04:23:43;;;;;;;10.20;9.02;;;;;;;;;;5075136;28;20043;-62
2021/07/17 04:26:09;;;;;;;8.80;7.85;;;;;;;;;;5075221;28;20012;-62
2021/07/17 04:28:36;;;;;;;10.43;8.45;;;;;;;;;;5075086;28;20110;-62
2021/07/17 04:31:02;;;;;;;11.18;9.40;;;;;;;;;;5093128;28;20024;-69
2021/07/17 04:33:28;;;;;;;10.13;8.90;;;;;;;;;;5092847;28;20029;-69
2021/07/17 04:35:53;;;;;;;9.75;8.75;;;;;;;;;;5092873;28;20021;-69
2021/07/17 04:38:20;;;;;;;9.88;8.90;;;;;;;;;;5092699;28;20033;-69
2021/07/17 04:40:46;;;;;;;9.40;8.48;;;;;;;;;;5074189;28;20040;-68
2021/07/17 04:43:11;;;;;;;9.40;8.38;;;;;;;;;;5093471;28;20115;-64
2021/07/17 04:45:37;;;;;;;8.68;7.82;;;;;;;;;;5078062;28;20031;-62
2021/07/17 04:48:04;;;;;;;9.02;8.13;;;;;;;;;;5096721;28;20055;-62
2021/07/17 04:50:33;;;;;;;8.93;8.02;;;;;;;;;;5096067;28;20023;-63
2021/07/17 04:52:59;;;;;;;9.48;8.25;;;;;;;;;;5078042;28;20050;-62
2021/07/17 04:55:25;;;;;;;7.45;6.75;;;;;;;;;;5096306;28;20024;-62
2021/07/17 04:57:51;;;;;;;7.10;6.40;;;;;;;;;;5095723;28;20038;-62
2021/07/17 05:00:19;;;;;;;7.45;6.40;;;;;;;;;;5096278;28;20020;-62
2021/07/17 05:02:45;;;;;;;7.63;6.30;;;;;;;;;;5095880;28;20072;-62
2021/07/17 05:05:12;;;;;;;9.43;6.88;;;;;;;;;;5095505;28;20042;-62
2021/07/17 05:07:37;;;;;;;7.45;6.35;;;;;;;;;;5095552;28;20012;-62
2021/07/17 05:10:05;;;;;;;8.05;7.07;;;;;;;;;;5094903;28;20016;-62
2021/07/17 05:12:32;;;;;;;7.28;6.28;;;;;;;;;;5095287;28;20020;-61
2021/07/17 05:14:57;;;;;;;10.27;7.10;;;;;;;;;;5077015;28;20169;-62
2021/07/17 05:17:23;;;;;;;8.57;6.55;;;;;;;;;;5094753;28;20102;-62
2021/07/17 05:19:48;;;;;;;7.10;5.95;;;;;;;;;;5095248;28;20013;-62
2021/07/17 05:22:14;;;;;;;9.65;6.95;;;;;;;;;;5076999;28;20028;-62
2021/07/17 05:24:40;;;;;;;9.02;6.75;;;;;;;;;;5076153;28;20016;-62
2021/07/17 05:27:06;;;;;;;8.07;6.28;;;;;;;;;;5092330;28;20498;-62
2021/07/17 05:29:32;;;;;;;7.95;6.40;;;;;;;;;;5095073;28;20012;-62
2021/07/17 05:31:58;;;;;;;7.53;6.63;;;;;;;;;;5094903;28;20031;-62
2021/07/17 05:34:23;;;;;;;10.98;6.45;;;;;;;;;;5095365;28;20024;-62
2021/07/17 05:36:49;;;;;;;10.23;6.80;;;;;;;;;;5095568;28;20032;-62
2021/07/17 05:39:14;;;;;;;8.23;7.00;;;;;;;;;;5095382;28;20519;-62
2021/07/17 05:41:40;;;;;;;9.60;6.97;;;;;;;;;;5073467;28;20384;-62
2021/07/17 05:44:05;;;;;;;10.02;6.78;;;;;;;;;;5073614;28;20495;-62
2021/07/17 05:46:31;;;;;;;8.73;7.32;;;;;;;;;;5075301;28;20028;-63
2021/07/17 05:48:56;;;;;;;8.70;6.72;;;;;;;;;;5072659;28;20020;-63
2021/07/17 05:51:23;;;;;;;8.93;6.43;;;;;;;;;;5071840;28;20036;-63
2021/07/17 05:53:48;;;;;;;9.05;6.72;;;;;;;;;;5073706;28;20554;-63
2021/07/17 05:56:14;;;;;;;10.38;7.10;;;;;;;;;;5074667;28;20169;-62
2021/07/17 05:58:39;;;;;;;7.45;6.80;;;;;;;;;;5073261;28;20028;-63
2021/07/17 06:01:05;;;;;;;9.90;6.55;;;;;;;;;;5074543;28;20467;-63
2021/07/17 06:03:30;;;;;;;9.93;6.93;;;;;;;;;;5074527;28;20016;-63
2021/07/17 06:05:56;;;;;;;8.90;6.90;;;;;;;;;;5073198;28;20039;-63
2021/07/17 06:08:22;;;;;;;10.13;7.03;;;;;;;;;;5074402;28;20012;-63
2021/07/17 06:10:47;;;;;;;7.07;6.43;;;;;;;;;;5074336;28;20021;-62
2021/07/17 06:13:13;;;;;;;6.70;5.97;;;;;;;;;;5074320;28;20016;-62
2021/07/17 06:15:38;;;;;;;9.90;7.32;;;;;;;;;;5074300;28;20515;-62
2021/07/17 06:18:03;;;;;;;8.00;6.90;;;;;;;;;;5074191;28;20023;-62
2021/07/17 06:20:29;;;;;;;8.20;6.75;;;;;;;;;;5072997;28;20056;-62
2021/07/17 06:22:54;;;;;;;7.38;6.18;;;;;;;;;;5074243;28;20074;-62
2021/07/17 06:25:20;;;;;;;8.82;6.78;;;;;;;;;;5074097;28;20396;-62
2021/07/17 06:27:46;;;;;;;7.90;6.28;;;;;;;;;;5074026;28;20379;-62
2021/07/17 06:30:11;;;;;;;9.48;7.30;;;;;;;;;;5074027;28;20027;-62
2021/07/17 06:32:37;;;;;;;10.85;7.00;;;;;;;;;;5073895;28;20016;-62
2021/07/17 06:35:03;;;;;;;6.65;5.50;;;;;;;;;;5073769;28;20078;-62
2021/07/17 06:37:28;;;;;;;6.47;5.82;;;;;;;;;;5072469;28;20020;-62
2021/07/17 06:39:54;;;;;;;7.95;6.25;;;;;;;;;;5067291;28;20063;-62
2021/07/17 06:42:20;;;;;;;13.75;7.30;;;;;;;;;;5071165;28;20040;-62
2021/07/17 06:44:46;;;;;;;8.65;6.70;;;;;;;;;;5089394;28;20035;-62
2021/07/17 06:47:11;;;;;;;6.32;5.53;;;;;;;;;;5089588;28;20028;-62
2021/07/17 06:49:37;;;;;;;11.70;6.35;;;;;;;;;;5071237;28;20024;-62
2021/07/17 06:52:08;;;;;;;7.00;5.97;;;;;;;;;;5089366;28;20062;-62
2021/07/17 06:54:34;;;;;;;8.10;5.97;;;;;;;;;;5088847;28;20035;-62
2021/07/17 06:56:59;;;;;;;9.82;6.63;;;;;;;;;;5089151;28;20039;-62
2021/07/17 06:59:25;;;;;;;12.80;6.70;;;;;;;;;;5088908;28;20067;-62
2021/07/17 07:01:51;;;;;;;8.50;6.72;;;;;;;;;;5089217;28;20024;-62
2021/07/17 07:04:16;;;;;;;9.05;7.03;;;;;;;;;;5089284;28;20042;-62
2021/07/17 07:06:42;;;;;;;10.13;6.72;;;;;;;;;;5088621;28;20028;-62
2021/07/17 07:09:08;;;;;;;7.25;6.10;;;;;;;;;;5070850;28;20073;-62
2021/07/17 07:11:33;;;;;;;13.95;7.10;;;;;;;;;;5089111;28;20024;-62
2021/07/17 07:13:59;;;;;;;8.93;6.68;;;;;;;;;;5089321;28;20032;-62
2021/07/17 07:16:24;;;;;;;7.18;5.97;;;;;;;;;;5089293;28;20046;-63
2021/07/17 07:18:50;;;;;;;7.90;6.25;;;;;;;;;;5088917;28;20035;-62
2021/07/17 07:21:15;;;;;;;7.32;5.95;;;;;;;;;;5070563;28;20063;-62
2021/07/17 07:23:41;;;;;;;7.13;6.45;;;;;;;;;;5089057;28;20351;-62
2021/07/17 07:26:06;;;;;;;6.80;6.15;;;;;;;;;;5089208;28;20016;-62
2021/07/17 07:28:32;;;;;;;6.35;5.85;;;;;;;;;;5088654;28;20467;-62
2021/07/17 07:30:58;;;;;;;9.20;5.13;;;;;;;;;;5088686;28;20026;-61
2021/07/17 07:33:24;;;;;;;5.82;5.32;;;;;;;;;;5089072;28;20032;-61
2021/07/17 07:35:49;;;;;;;8.18;5.50;;;;;;;;;;5088924;28;20405;-62
2021/07/17 07:38:15;;;;;;;7.30;5.55;;;;;;;;;;5070604;28;20105;-62
2021/07/17 07:40:41;;;;;;;5.97;5.45;;;;;;;;;;5089013;28;20036;-63
2021/07/17 07:43:07;;;;;;;8.57;5.85;;;;;;;;;;5089666;28;20371;-67
2021/07/17 07:45:32;;;;;;;5.88;5.20;;;;;;;;;;5071233;28;20028;-63
2021/07/17 07:47:58;;;;;;;7.82;5.85;;;;;;;;;;5089280;28;20034;-63
2021/07/17 07:50:23;;;;;;;5.53;5.03;;;;;;;;;;5089437;28;20435;-63
2021/07/17 07:52:50;;;;;;;9.50;5.78;;;;;;;;;;5071517;28;20028;-63
2021/07/17 07:55:15;;;;;;;8.73;5.90;;;;;;;;;;5089482;28;20062;-67
2021/07/17 07:57:41;;;;;;;6.50;5.80;;;;;;;;;;5089654;28;20483;-67
2021/07/17 08:00:07;;;;;;;7.82;6.10;;;;;;;;;;5088918;28;20123;-67
2021/07/17 08:02:36;;;;;;;6.88;5.78;;;;;;;;;;5089312;28;20089;-67
2021/07/17 08:05:02;;;;;;;10.55;6.03;;;;;;;;;;5089692;28;20016;-66
2021/07/17 08:07:28;;;;;;;7.82;6.18;;;;;;;;;;5089897;28;20116;-66
2021/07/17 08:09:53;;;;;;;7.22;6.20;;;;;;;;;;5070662;28;20023;-67
2021/07/17 08:12:19;;;;;;;7.03;5.63;;;;;;;;;;5089490;28;20032;-67
2021/07/17 08:14:45;;;;;;;7.47;6.10;;;;;;;;;;5090106;28;20020;-67
2021/07/17 08:17:10;;;;;;;12.35;6.18;;;;;;;;;;5090564;28;20027;-66
2021/07/17 08:19:36;;;;;;;8.70;6.10;;;;;;;;;;5093625;28;20561;-66
2021/07/17 08:22:01;;;;;;;7.90;6.40;;;;;;;;;;5075218;28;20028;-67
2021/07/17 08:24:27;;;;;;;7.97;6.40;;;;;;;;;;5074901;28;20035;-67
2021/07/17 08:26:52;;;;;;;6.88;5.95;;;;;;;;;;5093458;28;20085;-66
2021/07/17 08:29:18;;;;;;;8.10;5.57;;;;;;;;;;5093178;28;20490;-66
2021/07/17 08:31:43;;;;;;;11.60;6.82;;;;;;;;;;5093339;28;20031;-66
2021/07/17 08:34:09;;;;;;;13.18;8.35;;;;;;;;;;5093317;28;20016;-66
2021/07/17 08:36:34;;;;;;;7.35;6.35;;;;;;;;;;5093253;28;20031;-66
2021/07/17 08:39:00;;;;;;;6.85;6.25;;;;;;;;;;5093140;28;20024;-67
2021/07/17 08:41:26;;;;;;;10.10;6.10;;;;;;;;;;5092428;28;20052;-64
2021/07/17 08:43:55;;;;;;;7.78;6.60;;;;;;;;;;5090173;28;20036;-63
2021/07/17 08:46:22;;;;;;;7.78;7.07;;;;;;;;;;5092288;28;20032;-63
2021/07/17 08:48:49;;;;;;;10.52;7.13;;;;;;;;;;5092344;28;20020;-63
2021/07/17 08:51:15;;;;;;;12.05;8.15;;;;;;;;;;5092350;28;20116;-63
2021/07/17 08:53:41;;;;;;;8.88;7.38;;;;;;;;;;5092773;28;20521;-63
2021/07/17 08:56:07;;;;;;;8.90;7.35;;;;;;;;;;5092502;28;20016;-63
2021/07/17 08:58:33;;;;;;;30.85;9.90;;;;;;;;;;5073918;28;20424;-63
2021/07/17 09:01:00;;;;;;;8.63;6.40;;;;;;;;;;5092269;28;20036;-63
2021/07/17 09:03:26;;;;;;;8.98;6.93;;;;;;;;;;5074072;28;20051;-63
2021/07/17 09:05:53;;;;;;;10.10;7.47;;;;;;;;;;5091979;28;20534;-63
2021/07/17 09:08:19;;;;;;;7.57;6.85;;;;;;;;;;5091864;28;20027;-62
2021/07/17 09:10:49;;;;;;;9.40;7.13;;;;;;;;;;5092111;28;20036;-62
2021/07/17 09:13:17;;;;;;;8.43;7.50;;;;;;;;;;5092108;28;20523;-62
2021/07/17 09:16:02;;;;;;;8.32;7.43;;;;;;;;;;5074040;28;20668;-62
2021/07/17 09:18:29;;;;;;;9.75;6.75;;;;;;;;;;5091268;28;20052;-62
2021/07/17 09:20:57;;;;;;;12.25;7.68;;;;;;;;;;5056921;28;20032;-62
2021/07/17 09:23:27;;;;;;;9.63;7.72;;;;;;;;;;5073794;28;20104;-62
2021/07/17 09:25:53;;;;;;;9.38;7.47;;;;;;;;;;5091910;28;20074;-62
2021/07/17 09:28:24;;;;;;;7.35;6.57;;;;;;;;;;5091433;28;20483;-62
2021/07/17 09:30:50;;;;;;;7.68;6.97;;;;;;;;;;5090829;28;20028;-62
2021/07/17 09:33:16;;;;;;;8.40;7.18;;;;;;;;;;5091587;28;20520;-62
2021/07/17 09:35:43;;;;;;;10.68;7.93;;;;;;;;;;5091747;28;20467;-62
2021/07/17 09:38:09;;;;;;;7.13;6.32;;;;;;;;;;5090957;28;20080;-63
2021/07/17 09:40:52;;;;;;;10.05;7.28;;;;;;;;;;5091425;28;20044;-68
2021/07/17 09:43:34;;;;;;;9.93;7.63;;;;;;;;;;5091799;28;20032;-68
2021/07/17 09:46:01;;;;;;;8.40;7.45;;;;;;;;;;5092117;28;20102;-67
2021/07/17 09:48:27;;;;;;;11.68;7.63;;;;;;;;;;5091704;28;20012;-67
2021/07/17 09:50:53;;;;;;;10.45;7.22;;;;;;;;;;5091492;28;20064;-63
2021/07/17 09:53:54;;;;;;;10.25;8.05;;;;;;;;;;5073096;28;20027;-63
2021/07/17 09:56:28;;;;;;;13.18;8.38;;;;;;;;;;4971619;28;20045;-63
2021/07/17 09:58:57;;;;;;;9.38;6.45;;;;;;;;;;5037964;28;20045;-63
2021/07/17 10:01:24;;;;;;;8.98;8.07;;;;;;;;;;5068966;28;20395;-63
2021/07/17 10:03:50;;;;;;;8.30;7.50;;;;;;;;;;5070669;28;20032;-63
2021/07/17 10:06:31;;;;;;;9.10;8.15;;;;;;;;;;5052768;28;20387;-63
2021/07/17 10:08:56;;;;;;;;;;;;;;;;;;5036119;28;20475;-63
2021/07/17 10:11:25;;;;;;;8.50;7.60;;;;;;;;;;5070284;28;19951;-63
2021/07/17 10:13:51;;;;;;;12.43;8.30;;;;;;;;;;5069806;28;20302;-62
2021/07/17 10:16:18;;;;;;;10.13;7.65;;;;;;;;;;5069757;28;20020;-62
2021/07/17 10:18:44;;;;;;;7.80;6.97;;;;;;;;;;5069972;28;20782;-62
2021/07/17 10:21:09;;;;;;;9.13;8.23;;;;;;;;;;5070508;28;20047;-62
2021/07/17 10:23:35;;;;;;;9.90;8.15;;;;;;;;;;5051518;28;20032;-63
2021/07/17 10:26:01;;;;;;;10.68;8.15;;;;;;;;;;5069400;28;20031;-63
2021/07/17 10:28:26;;;;;;;8.88;6.15;;;;;;;;;;5069005;28;20123;-63
2021/07/17 10:30:52;;;;;;;8.60;7.15;;;;;;;;;;5071504;28;20107;-67
2021/07/17 10:33:18;;;;;;;9.48;7.57;;;;;;;;;;5069640;28;20047;-67
2021/07/17 10:35:46;;;;;;;8.95;8.07;;;;;;;;;;5069914;28;20032;-67
2021/07/17 10:38:13;;;;;;;14.80;7.97;;;;;;;;;;5051838;28;20036;-67
2021/07/17 10:40:38;;;;;;;9.20;7.70;;;;;;;;;;5068628;28;20048;-67
2021/07/17 10:43:06;;;;;;;10.38;8.00;;;;;;;;;;5070342;28;20109;-67
2021/07/17 10:45:31;;;;;;;9.18;7.72;;;;;;;;;;5070124;28;20024;-67
2021/07/17 10:47:57;;;;;;;8.65;6.68;;;;;;;;;;5052206;28;20480;-67
2021/07/17 10:50:30;;;;;;;8.90;7.40;;;;;;;;;;5052488;28;20083;-67
2021/07/17 10:52:55;;;;;;;10.13;7.53;;;;;;;;;;5070510;28;20021;-67
2021/07/17 10:55:24;;;;;;;11.25;8.10;;;;;;;;;;5069935;28;20020;-65
2021/07/17 10:57:50;;;;;;;16.77;8.27;;;;;;;;;;5069754;28;20051;-65
2021/07/17 11:00:34;;;;;;;12.88;8.70;;;;;;;;;;5069882;28;20059;-65
2021/07/17 11:03:16;;;;;;;10.10;8.80;;;;;;;;;;5070078;28;20163;-65
2021/07/17 11:05:42;;;;;;;8.95;8.05;;;;;;;;;;5069878;28;20039;-67
2021/07/17 11:08:27;;;;;;;8.88;7.97;;;;;;;;;;5069505;28;20025;-67
2021/07/17 11:10:54;;;;;;;11.68;7.82;;;;;;;;;;5069592;28;20400;-66
2021/07/17 11:13:30;;;;;;;10.80;7.80;;;;;;;;;;5069709;28;20510;-66
2021/07/17 11:15:55;;;;;;;10.57;7.80;;;;;;;;;;5069406;28;20083;-67
2021/07/17 11:18:21;;;;;;;8.90;8.00;;;;;;;;;;5069206;28;20399;-66
2021/07/17 11:20:47;;;;;;;9.52;8.55;;;;;;;;;;5069578;28;20111;-66
2021/07/17 11:23:16;;;;;;;12.77;8.18;;;;;;;;;;5069687;28;20678;-66
2021/07/17 11:25:56;;;;;;;10.00;8.80;;;;;;;;;;5051338;28;20028;-66
2021/07/17 11:28:42;;;;;;;14.13;8.82;;;;;;;;;;5078405;28;20515;-66
2021/07/17 11:31:26;;;;;;;9.60;8.20;;;;;;;;;;5071320;28;20503;-66
2021/07/17 11:34:43;;;;;;;9.45;8.15;;;;;;;;;;5069148;28;20031;-66
2021/07/17 11:37:06;;;;;;;9.48;7.53;;;;;;;;;;5082398;28;20428;-66
2021/07/17 11:39:33;;;;;;;8.93;7.95;;;;;;;;;;5087921;28;20082;-67
2021/07/17 11:42:00;;;;;;;15.25;7.80;;;;;;;;;;5087930;28;20050;-67
2021/07/17 11:44:26;;;;;;;14.38;8.15;;;;;;;;;;5085134;28;20053;-66
2021/07/17 11:46:56;;;;;;;10.00;7.97;;;;;;;;;;5089881;28;20016;-66
2021/07/17 11:49:25;;;;;;;14.77;8.20;;;;;;;;;;5089432;28;20567;-66
2021/07/17 11:51:52;;;;;;;11.87;8.90;;;;;;;;;;5090074;28;20449;-66
2021/07/17 11:54:28;;;;;;;9.77;7.88;;;;;;;;;;5092753;28;20818;-66
2021/07/17 11:57:07;;;;;;;10.45;8.40;;;;;;;;;;5092355;28;20031;-65
2021/07/17 11:59:34;;;;;;;16.58;8.88;;;;;;;;;;5090595;28;20082;-65
2021/07/17 12:02:08;;;;;;;10.45;8.15;;;;;;;;;;5073715;28;20016;-66
2021/07/17 12:04:35;;;;;;;13.07;8.35;;;;;;;;;;5091850;28;20035;-66
2021/07/17 12:07:08;;;;;;;9.25;7.55;;;;;;;;;;5092332;28;20107;-65
2021/07/17 12:09:41;;;;;;;10.00;7.60;;;;;;;;;;5092438;28;20027;-66
2021/07/17 12:12:11;;;;;;;11.48;8.10;;;;;;;;;;5093239;28;20037;-66
2021/07/17 12:14:36;;;;;;;13.10;8.80;;;;;;;;;;5093335;28;20165;-65
2021/07/17 12:17:02;;;;;;;12.32;8.40;;;;;;;;;;5093141;28;20406;-65
2021/07/17 12:19:28;;;;;;;9.55;8.00;;;;;;;;;;5092869;28;20020;-65
2021/07/17 12:21:57;;;;;;;9.30;8.10;;;;;;;;;;5093258;28;20039;-66
2021/07/17 12:24:22;;;;;;;14.73;8.20;;;;;;;;;;5093555;28;20035;-66
2021/07/17 12:26:48;;;;;;;10.15;8.40;;;;;;;;;;5093624;28;20027;-66
2021/07/17 12:29:13;;;;;;;9.35;8.40;;;;;;;;;;5093326;28;20593;-67
2021/07/17 12:31:39;;;;;;;12.50;8.80;;;;;;;;;;5093212;28;20027;-67
2021/07/17 12:34:13;;;;;;;11.27;8.27;;;;;;;;;;5074715;28;20031;-68
2021/07/17 12:36:42;;;;;;;12.57;9.20;;;;;;;;;;5092952;28;20177;-67
2021/07/17 12:39:07;;;;;;;9.82;8.38;;;;;;;;;;5090598;28;20380;-67
2021/07/17 12:41:34;;;;;;;11.50;8.95;;;;;;;;;;5091954;28;20062;-67
2021/07/17 12:44:03;;;;;;;13.38;8.68;;;;;;;;;;5091289;28;20119;-66
2021/07/17 12:46:30;;;;;;;9.27;8.18;;;;;;;;;;5091640;28;20111;-67
2021/07/17 12:48:57;;;;;;;11.70;8.57;;;;;;;;;;5092698;28;20082;-67
2021/07/17 12:51:24;;;;;;;11.65;9.27;;;;;;;;;;5092535;28;20051;-66
2021/07/17 12:53:50;;;;;;;12.57;9.15;;;;;;;;;;5073481;28;20015;-67
2021/07/17 12:56:28;;;;;;;14.52;8.88;;;;;;;;;;5091588;28;20097;-66
2021/07/17 12:58:54;;;;;;;14.52;9.25;;;;;;;;;;5092160;28;20036;-67
2021/07/17 13:01:19;;;;;;;15.48;9.18;;;;;;;;;;5092638;28;20027;-66
2021/07/17 13:03:45;;;;;;;9.52;8.55;;;;;;;;;;5091341;28;20020;-66
2021/07/17 13:06:11;;;;;;;12.05;8.23;;;;;;;;;;5092007;28;20134;-66
2021/07/17 13:08:40;;;;;;;9.07;8.23;;;;;;;;;;5090861;28;20387;-66
2021/07/17 13:11:13;;;;;;;14.18;9.73;;;;;;;;;;5073073;28;20024;-66
2021/07/17 13:13:39;;;;;;;12.27;9.18;;;;;;;;;;5091463;28;20045;-66
2021/07/17 13:16:05;;;;;;;12.45;9.93;;;;;;;;;;5073881;28;20024;-66
2021/07/17 13:18:31;;;;;;;15.55;9.52;;;;;;;;;;5091969;28;20143;-66
2021/07/17 13:21:00;;;;;;;13.40;9.55;;;;;;;;;;5091993;28;20032;-66
2021/07/17 13:23:26;;;;;;;12.88;10.40;;;;;;;;;;5092337;28;20040;-66
2021/07/17 13:25:52;;;;;;;13.80;10.10;;;;;;;;;;5092284;28;20020;-66
2021/07/17 13:28:17;;;;;;;14.15;9.82;;;;;;;;;;5092291;28;20024;-66
2021/07/17 13:30:44;;;;;;;11.43;9.55;;;;;;;;;;5092050;28;20137;-66
2021/07/17 13:33:12;;;;;;;12.10;10.27;;;;;;;;;;5091741;28;20448;-66
2021/07/17 13:35:41;;;;;;;11.38;10.15;;;;;;;;;;5091962;28;20027;-66
2021/07/17 13:38:12;;;;;;;14.13;10.02;;;;;;;;;;5091850;28;20039;-68
2021/07/17 13:40:39;;;;;;;16.58;11.05;;;;;;;;;;5052228;28;20040;-66
2021/07/17 13:43:06;;;;;;;12.88;9.82;;;;;;;;;;5070601;28;20388;-65
2021/07/17 13:45:32;;;;;;;12.85;10.05;;;;;;;;;;5052757;28;20040;-66
2021/07/17 13:47:58;;;;;;;14.55;10.07;;;;;;;;;;5070815;28;20032;-66
2021/07/17 13:50:25;;;;;;;14.68;10.05;;;;;;;;;;5070497;28;20163;-66
2021/07/17 13:53:00;;;;;;;18.17;10.98;;;;;;;;;;5070114;28;20078;-66
2021/07/17 13:55:27;;;;;;;13.95;10.60;;;;;;;;;;5070944;28;20513;-61
2021/07/17 13:58:21;;;;;;;14.60;10.40;;;;;;;;;;5069960;28;20023;-73
2021/07/17 14:00:48;;;;;;;11.45;9.55;;;;;;;;;;5057011;28;20048;-72
2021/07/17 14:03:15;;;;;;;12.63;9.75;;;;;;;;;;5052032;28;20081;-67
2021/07/17 14:05:41;;;;;;;16.38;10.65;;;;;;;;;;5069494;28;20039;-68
2021/07/17 14:08:07;;;;;;;13.43;9.65;;;;;;;;;;5069652;28;20016;-67
2021/07/17 14:10:32;;;;;;;12.88;9.48;;;;;;;;;;5070438;28;20029;-67
2021/07/17 14:12:58;;;;;;;12.05;9.82;;;;;;;;;;5071904;28;20033;-69
2021/07/17 14:15:23;;;;;;;12.10;9.57;;;;;;;;;;5072507;28;20075;-70
2021/07/17 14:17:53;;;;;;;11.68;9.13;;;;;;;;;;5073212;28;20032;-70
2021/07/17 14:20:19;;;;;;;12.52;9.90;;;;;;;;;;5073605;28;20043;-71
2021/07/17 14:22:44;;;;;;;13.93;10.05;;;;;;;;;;5073738;28;20017;-70
2021/07/17 14:25:10;;;;;;;10.68;8.25;;;;;;;;;;5073144;28;20028;-70
2021/07/17 14:27:36;;;;;;;10.75;9.73;;;;;;;;;;5074024;28;20017;-70
2021/07/17 14:30:02;;;;;;;12.50;9.30;;;;;;;;;;5073973;28;20028;-70
2021/07/17 14:32:28;;;;;;;12.20;9.35;;;;;;;;;;5074544;28;20018;-70